createdAt,value
2017-06-24T00:00:09.238Z,19.50
2017-06-24T00:02:35.707Z,20.70
2017-06-24T00:05:02.160Z,20.77
2017-06-24T00:07:28.664Z,21.20
2017-06-24T00:09:55.077Z,20.53
2017-06-24T00:12:21.512Z,20.83
2017-06-24T00:14:48.668Z,20.63
2017-06-24T00:17:15.057Z,21.93
2017-06-24T00:19:41.467Z,21.47
2017-06-24T00:22:07.917Z,21.53
2017-06-24T00:24:34.288Z,22.97
2017-06-24T00:27:00.689Z,20.57
2017-06-24T00:29:27.125Z,23.27
2017-06-24T00:31:53.552Z,22.50
2017-06-24T00:34:19.966Z,21.60
2017-06-24T00:36:46.398Z,21.70
2017-06-24T00:39:12.807Z,22.50
2017-06-24T00:41:39.967Z,23.97
2017-06-24T00:44:06.380Z,22.10
2017-06-24T00:46:33.532Z,21.20
2017-06-24T00:49:00.697Z,24.10
2017-06-24T00:51:27.083Z,22.63
2017-06-24T00:53:53.500Z,22.13
2017-06-24T00:56:19.908Z,22.60
2017-06-24T00:58:46.322Z,21.70
2017-06-24T01:01:12.739Z,22.90
2017-06-24T01:03:39.900Z,20.37
2017-06-24T01:06:06.347Z,23.40
2017-06-24T01:08:32.769Z,21.00
2017-06-24T01:10:59.956Z,20.17
2017-06-24T01:13:26.382Z,21.20
2017-06-24T01:15:52.783Z,20.83
2017-06-24T01:18:19.192Z,21.30
2017-06-24T01:20:45.652Z,22.23
2017-06-24T01:23:12.060Z,21.10
2017-06-24T01:25:39.188Z,20.87
2017-06-24T01:28:05.576Z,19.93
2017-06-24T01:30:32.014Z,20.03
2017-06-24T01:32:58.456Z,20.83
2017-06-24T01:35:24.880Z,19.20
2017-06-24T01:37:51.342Z,20.27
2017-06-24T01:40:17.760Z,20.50
2017-06-24T01:42:44.198Z,19.20
2017-06-24T01:45:10.679Z,18.90
2017-06-24T01:47:37.848Z,18.10
2017-06-24T01:50:05.417Z,19.60
2017-06-24T01:52:31.826Z,19.30
2017-06-24T01:54:58.273Z,22.07
2017-06-24T01:57:24.703Z,18.10
2017-06-24T01:59:51.845Z,18.77
2017-06-24T02:02:19.009Z,21.27
2017-06-24T02:04:45.423Z,19.67
2017-06-24T02:07:12.588Z,19.40
2017-06-24T02:09:39.750Z,17.77
2017-06-24T02:12:06.167Z,18.63
2017-06-24T02:14:33.335Z,16.13
2017-06-24T02:16:59.800Z,20.00
2017-06-24T02:19:26.178Z,17.47
2017-06-24T02:21:53.349Z,19.07
2017-06-24T02:24:19.755Z,18.60
2017-06-24T02:26:46.159Z,17.03
2017-06-24T02:29:12.653Z,17.07
2017-06-24T02:31:39.055Z,19.33
2017-06-24T02:34:05.464Z,17.23
2017-06-24T02:36:31.862Z,18.10
2017-06-24T02:38:58.309Z,16.50
2017-06-24T02:41:24.721Z,17.33
2017-06-24T02:43:51.099Z,18.00
2017-06-24T02:46:17.510Z,16.00
2017-06-24T02:48:43.937Z,18.33
2017-06-24T02:51:10.351Z,16.17
2017-06-24T02:53:36.779Z,18.33
2017-06-24T02:56:03.206Z,18.80
2017-06-24T02:58:29.608Z,17.13
2017-06-24T03:00:56.018Z,18.80
2017-06-24T03:03:22.476Z,19.83
2017-06-24T03:05:49.655Z,17.03
2017-06-24T03:08:16.079Z,18.00
2017-06-24T03:10:43.218Z,18.00
2017-06-24T03:13:10.366Z,16.97
2017-06-24T03:15:37.540Z,18.90
2017-06-24T03:18:03.974Z,18.00
2017-06-24T03:20:30.385Z,18.17
2017-06-24T03:22:56.796Z,17.43
2017-06-24T03:25:23.224Z,18.20
2017-06-24T03:27:49.620Z,18.40
2017-06-24T03:30:16.067Z,19.47
2017-06-24T03:32:42.550Z,19.70
2017-06-24T03:35:09.722Z,17.70
2017-06-24T03:37:36.135Z,18.40
2017-06-24T03:40:03.310Z,18.67
2017-06-24T03:42:29.718Z,18.93
2017-06-24T03:44:56.918Z,18.23
2017-06-24T03:47:23.321Z,16.97
2017-06-24T03:49:49.718Z,18.27
2017-06-24T03:52:16.881Z,17.00
2017-06-24T03:54:44.031Z,18.83
2017-06-24T03:57:11.166Z,19.70
2017-06-24T03:59:38.369Z,18.33
2017-06-24T04:02:04.766Z,17.23
2017-06-24T04:04:31.187Z,16.83
2017-06-24T04:06:57.581Z,18.73
2017-06-24T04:09:24.000Z,17.90
2017-06-24T04:11:50.419Z,20.20
2017-06-24T04:14:16.849Z,19.97
2017-06-24T04:16:43.286Z,18.93
2017-06-24T04:19:09.693Z,18.43
2017-06-24T04:21:36.832Z,19.90
2017-06-24T04:26:23.072Z,19.13
2017-06-24T04:28:49.560Z,17.10
2017-06-24T04:31:15.968Z,17.70
2017-06-24T04:33:42.393Z,20.90
2017-06-24T04:36:08.856Z,18.53
2017-06-24T04:38:35.397Z,19.10
2017-06-24T04:41:01.822Z,17.50
2017-06-24T04:43:28.228Z,18.20
2017-06-24T04:45:54.638Z,16.63
2017-06-24T04:48:21.023Z,17.57
2017-06-24T04:50:47.452Z,18.57
2017-06-24T04:53:13.857Z,16.10
2017-06-24T04:55:40.255Z,18.40
2017-06-24T04:58:06.677Z,17.43
2017-06-24T05:00:33.811Z,17.13
2017-06-24T05:03:00.208Z,17.70
2017-06-24T05:05:26.643Z,17.50
2017-06-24T05:07:53.066Z,18.20
2017-06-24T05:10:19.481Z,19.07
2017-06-24T05:12:45.877Z,19.13
2017-06-24T05:15:12.286Z,17.70
2017-06-24T05:17:38.685Z,20.03
2017-06-24T05:20:05.098Z,18.77
2017-06-24T05:22:31.546Z,18.27
2017-06-24T05:24:57.986Z,16.90
2017-06-24T05:27:24.397Z,17.03
2017-06-24T05:29:51.564Z,16.57
2017-06-24T05:32:17.965Z,16.50
2017-06-24T05:34:45.129Z,16.70
2017-06-24T05:37:11.558Z,15.90
2017-06-24T05:39:37.989Z,14.40
2017-06-24T05:42:05.332Z,13.73
2017-06-24T05:44:32.463Z,13.60
2017-06-24T05:46:58.894Z,13.27
2017-06-24T05:49:25.307Z,12.20
2017-06-24T05:51:51.695Z,12.03
2017-06-24T05:54:18.878Z,12.97
2017-06-24T05:56:45.280Z,14.07
2017-06-24T05:59:11.689Z,12.43
2017-06-24T06:01:38.156Z,11.90
2017-06-24T06:04:05.355Z,12.53
2017-06-24T06:06:31.796Z,12.87
2017-06-24T06:08:58.270Z,12.63
2017-06-24T06:11:24.694Z,11.50
2017-06-24T06:13:51.867Z,11.30
2017-06-24T06:16:18.845Z,10.57
2017-06-24T06:18:45.260Z,10.60
2017-06-24T06:21:11.675Z,10.80
2017-06-24T06:23:38.079Z,10.03
2017-06-24T06:26:05.232Z,10.10
2017-06-24T06:28:32.393Z,10.97
2017-06-24T06:30:59.589Z,9.27
2017-06-24T06:33:26.019Z,10.47
2017-06-24T06:35:52.455Z,9.80
2017-06-24T06:38:18.906Z,9.90
2017-06-24T06:40:45.333Z,9.53
2017-06-24T06:43:11.791Z,7.97
2017-06-24T06:45:38.936Z,7.77
2017-06-24T06:48:05.331Z,7.47
2017-06-24T06:50:31.890Z,6.00
2017-06-24T06:52:58.409Z,7.10
2017-06-24T06:55:24.806Z,6.30
2017-06-24T06:57:51.218Z,5.33
2017-06-24T07:00:17.642Z,5.27
2017-06-24T07:02:44.049Z,5.03
2017-06-24T07:05:10.488Z,5.93
2017-06-24T07:07:36.912Z,5.60
2017-06-24T07:10:03.343Z,5.87
2017-06-24T07:12:29.778Z,5.40
2017-06-24T07:14:56.277Z,6.07
2017-06-24T07:17:22.675Z,5.87
2017-06-24T07:19:49.063Z,5.70
2017-06-24T07:22:15.485Z,5.03
2017-06-24T07:24:41.921Z,5.13
2017-06-24T07:27:08.369Z,5.97
2017-06-24T07:29:34.804Z,6.23
2017-06-24T07:32:01.277Z,6.03
2017-06-24T07:34:28.431Z,4.90
2017-06-24T07:36:55.555Z,6.00
2017-06-24T07:39:21.939Z,6.03
2017-06-24T07:41:48.441Z,5.73
2017-06-24T07:44:14.840Z,5.13
2017-06-24T07:46:41.265Z,5.70
2017-06-24T07:49:07.664Z,5.60
2017-06-24T07:51:34.160Z,5.53
2017-06-24T07:54:00.585Z,4.80
2017-06-24T07:56:26.974Z,5.30
2017-06-24T07:58:53.364Z,5.30
2017-06-24T08:01:19.787Z,5.40
2017-06-24T08:03:46.206Z,5.83
2017-06-24T08:06:12.598Z,6.20
2017-06-24T08:08:39.013Z,5.30
2017-06-24T08:11:06.163Z,4.00
2017-06-24T08:13:33.315Z,5.83
2017-06-24T08:16:00.468Z,5.13
2017-06-24T08:18:27.609Z,5.00
2017-06-24T08:20:54.755Z,5.90
2017-06-24T08:23:21.169Z,5.43
2017-06-24T08:25:47.570Z,6.47
2017-06-24T08:28:13.989Z,6.17
2017-06-24T08:30:40.462Z,5.57
2017-06-24T08:33:06.870Z,5.60
2017-06-24T08:35:33.261Z,6.20
2017-06-24T08:37:59.675Z,6.00
2017-06-24T08:40:26.099Z,6.00
2017-06-24T08:42:52.552Z,4.80
2017-06-24T08:45:19.700Z,5.30
2017-06-24T08:47:46.858Z,6.80
2017-06-24T08:50:13.983Z,5.30
2017-06-24T08:52:40.360Z,5.13
2017-06-24T08:55:06.775Z,4.87
2017-06-24T08:57:33.921Z,4.10
2017-06-24T09:00:01.055Z,4.27
2017-06-24T09:02:27.481Z,4.67
2017-06-24T09:04:53.883Z,6.73
2017-06-24T09:07:20.296Z,4.83
2017-06-24T09:09:46.774Z,4.40
2017-06-24T09:12:13.987Z,5.17
2017-06-24T09:14:40.401Z,5.07
2017-06-24T09:17:06.829Z,5.77
2017-06-24T09:19:33.970Z,4.37
2017-06-24T09:22:01.144Z,4.27
2017-06-24T09:24:27.584Z,5.00
2017-06-24T09:26:53.980Z,4.70
2017-06-24T09:29:20.390Z,4.43
2017-06-24T09:31:46.799Z,4.03
2017-06-24T09:34:13.193Z,4.77
2017-06-24T09:36:40.491Z,4.10
2017-06-24T09:39:06.932Z,3.93
2017-06-24T09:41:33.338Z,4.80
2017-06-24T09:43:59.735Z,4.27
2017-06-24T09:46:26.204Z,3.80
2017-06-24T09:48:52.701Z,3.93
2017-06-24T09:51:19.844Z,3.80
2017-06-24T09:53:46.347Z,3.43
2017-06-24T09:56:12.797Z,3.37
2017-06-24T09:58:39.237Z,3.60
2017-06-24T10:01:05.638Z,3.60
2017-06-24T10:03:32.054Z,3.70
2017-06-24T10:05:58.462Z,3.67
2017-06-24T10:08:25.600Z,3.73
2017-06-24T10:10:52.017Z,3.93
2017-06-24T10:13:18.421Z,3.50
2017-06-24T10:15:44.972Z,3.60
2017-06-24T10:18:11.365Z,3.27
2017-06-24T10:20:37.759Z,3.60
2017-06-24T10:23:04.173Z,3.80
2017-06-24T10:25:30.600Z,3.90
2017-06-24T10:27:57.001Z,4.07
2017-06-24T10:30:23.424Z,3.27
2017-06-24T10:32:49.803Z,3.67
2017-06-24T10:35:16.232Z,3.63
2017-06-24T10:37:42.631Z,3.97
2017-06-24T10:40:09.021Z,3.70
2017-06-24T10:42:35.424Z,4.00
2017-06-24T10:45:01.896Z,3.93
2017-06-24T10:47:28.324Z,3.30
2017-06-24T10:49:54.894Z,3.20
2017-06-24T10:52:21.307Z,3.43
2017-06-24T10:54:48.479Z,3.60
2017-06-24T10:57:14.959Z,3.43
2017-06-24T10:59:41.384Z,3.60
2017-06-24T11:02:07.862Z,4.20
2017-06-24T11:04:35.073Z,3.70
2017-06-24T11:07:01.515Z,4.77
2017-06-24T11:09:27.970Z,3.90
2017-06-24T11:11:54.438Z,4.23
2017-06-24T11:14:20.862Z,3.50
2017-06-24T11:16:47.370Z,4.00
2017-06-24T11:19:13.789Z,4.37
2017-06-24T11:21:40.231Z,4.23
2017-06-24T11:24:06.744Z,4.70
2017-06-24T11:26:33.153Z,4.13
2017-06-24T11:28:59.574Z,5.10
2017-06-24T11:31:26.018Z,4.63
2017-06-24T11:33:52.480Z,5.20
2017-06-24T11:36:18.936Z,4.93
2017-06-24T11:38:46.102Z,5.47
2017-06-24T11:41:13.249Z,4.50
2017-06-24T11:43:40.389Z,5.43
2017-06-24T11:46:07.562Z,5.60
2017-06-24T11:48:33.984Z,6.00
2017-06-24T11:51:01.200Z,4.33
2017-06-24T11:53:27.586Z,4.60
2017-06-24T11:55:53.996Z,4.73
2017-06-24T11:58:20.387Z,5.77
2017-06-24T12:00:46.822Z,5.07
2017-06-24T12:03:13.253Z,4.10
2017-06-24T12:05:40.466Z,4.83
2017-06-24T12:08:06.909Z,5.67
2017-06-24T12:10:33.329Z,4.57
2017-06-24T12:12:59.741Z,5.60
2017-06-24T12:15:26.142Z,5.80
2017-06-24T12:17:52.562Z,5.67
2017-06-24T12:20:18.985Z,4.80
2017-06-24T12:22:45.399Z,5.17
2017-06-24T12:25:11.803Z,5.53
2017-06-24T12:27:38.247Z,5.33
2017-06-24T12:30:05.377Z,5.03
2017-06-24T12:32:31.793Z,4.80
2017-06-24T12:34:58.211Z,4.47
2017-06-24T12:37:24.623Z,5.30
2017-06-24T12:39:51.071Z,5.43
2017-06-24T12:42:17.747Z,5.23
2017-06-24T12:44:44.123Z,5.00
2017-06-24T12:47:10.507Z,4.80
2017-06-24T12:49:36.923Z,5.10
2017-06-24T12:52:03.291Z,5.67
2017-06-24T12:54:29.674Z,6.37
2017-06-24T12:56:56.083Z,4.83
2017-06-24T12:59:22.496Z,4.87
2017-06-24T13:01:48.869Z,5.50
2017-06-24T13:04:15.280Z,5.00
2017-06-24T13:06:41.674Z,4.23
2017-06-24T13:09:08.164Z,5.07
2017-06-24T13:11:34.594Z,4.87
2017-06-24T13:14:01.035Z,5.00
2017-06-24T13:16:27.421Z,4.30
2017-06-24T13:18:53.825Z,4.47
2017-06-24T13:21:20.275Z,4.20
2017-06-24T13:23:46.676Z,4.87
2017-06-24T13:26:13.094Z,4.50
2017-06-24T13:28:39.514Z,4.53
2017-06-24T13:31:05.905Z,4.40
2017-06-24T13:36:24.250Z,4.63
2017-06-24T13:38:50.664Z,3.80
2017-06-24T13:41:17.083Z,4.70
2017-06-24T13:43:43.647Z,5.27
2017-06-24T13:46:10.061Z,5.30
2017-06-24T13:48:36.446Z,4.30
2017-06-24T13:51:02.831Z,4.60
2017-06-24T13:53:29.233Z,4.57
2017-06-24T13:55:56.367Z,5.50
2017-06-24T13:58:22.794Z,5.47
2017-06-24T14:00:49.186Z,6.50
2017-06-24T14:03:15.601Z,5.10
2017-06-24T14:05:42.011Z,4.23
2017-06-24T14:08:08.411Z,5.10
2017-06-24T14:10:34.788Z,4.07
2017-06-24T14:13:01.165Z,5.50
2017-06-24T14:15:27.545Z,5.20
2017-06-24T14:17:54.685Z,4.93
2017-06-24T14:20:21.065Z,4.30
2017-06-24T14:22:47.481Z,4.50
2017-06-24T14:25:13.879Z,4.63
2017-06-24T14:27:40.345Z,4.63
2017-06-24T14:30:06.755Z,4.87
2017-06-24T14:32:33.860Z,4.73
2017-06-24T14:35:00.259Z,4.70
2017-06-24T14:37:26.681Z,4.90
2017-06-24T14:39:53.065Z,4.03
2017-06-24T14:42:19.497Z,5.20
2017-06-24T14:44:45.881Z,5.30
2017-06-24T14:47:12.346Z,4.40
2017-06-24T14:49:38.771Z,4.57
2017-06-24T14:52:05.208Z,4.67
2017-06-24T14:54:31.613Z,5.20
2017-06-24T14:56:58.018Z,5.20
2017-06-24T14:59:24.441Z,5.10
2017-06-24T15:01:50.837Z,5.07
2017-06-24T15:04:17.246Z,5.03
2017-06-24T15:06:43.634Z,5.60
2017-06-24T15:09:10.039Z,4.90
2017-06-24T15:11:36.456Z,5.17
2017-06-24T15:14:02.902Z,5.30
2017-06-24T15:16:29.298Z,5.30
2017-06-24T15:18:56.516Z,5.10
2017-06-24T15:21:22.991Z,5.40
2017-06-24T15:23:49.387Z,5.00
2017-06-24T15:26:15.804Z,5.40
2017-06-24T15:28:42.269Z,5.30
2017-06-24T15:31:08.688Z,5.17
2017-06-24T15:33:35.094Z,5.40
2017-06-24T15:36:16.404Z,5.83
2017-06-24T15:38:42.817Z,5.90
2017-06-24T15:41:09.210Z,5.67
2017-06-24T15:43:35.613Z,6.43
2017-06-24T15:46:02.787Z,6.30
2017-06-24T15:48:29.193Z,6.33
2017-06-24T15:50:56.316Z,6.60
2017-06-24T15:53:22.748Z,6.03
2017-06-24T15:55:49.128Z,6.27
2017-06-24T15:58:15.527Z,6.83
2017-06-24T16:00:41.918Z,6.20
2017-06-24T16:03:08.296Z,6.53
2017-06-24T16:05:34.712Z,6.80
2017-06-24T16:08:01.099Z,6.40
2017-06-24T16:10:27.498Z,6.00
2017-06-24T16:12:54.643Z,6.80
2017-06-24T16:15:21.035Z,6.03
2017-06-24T16:17:47.456Z,6.50
2017-06-24T16:20:13.836Z,6.90
2017-06-24T16:22:40.247Z,6.37
2017-06-24T16:25:21.562Z,6.63
2017-06-24T16:27:48.732Z,6.37
2017-06-24T16:30:15.899Z,6.23
2017-06-24T16:32:42.308Z,6.77
2017-06-24T16:35:09.501Z,6.10
2017-06-24T16:37:35.951Z,6.40
2017-06-24T16:40:02.340Z,6.60
2017-06-24T16:42:28.723Z,6.70
2017-06-24T16:44:55.174Z,6.27
2017-06-24T16:47:22.329Z,7.00
2017-06-24T16:49:48.744Z,6.40
2017-06-24T16:52:15.151Z,6.83
2017-06-24T16:54:41.597Z,6.77
2017-06-24T16:57:08.029Z,6.90
2017-06-24T16:59:34.430Z,6.80
2017-06-24T17:02:00.855Z,6.50
2017-06-24T17:04:27.238Z,6.80
2017-06-24T17:06:53.633Z,7.30
2017-06-24T17:09:20.022Z,6.97
2017-06-24T17:11:46.419Z,6.97
2017-06-24T17:14:12.798Z,7.50
2017-06-24T17:16:39.938Z,6.50
2017-06-24T17:19:07.100Z,7.07
2017-06-24T17:21:34.239Z,6.90
2017-06-24T17:24:01.384Z,7.10
2017-06-24T17:26:27.781Z,6.70
2017-06-24T17:28:54.185Z,6.60
2017-06-24T17:31:20.649Z,7.30
2017-06-24T17:33:47.089Z,6.80
2017-06-24T17:36:13.455Z,7.73
2017-06-24T17:38:39.923Z,6.83
2017-06-24T17:41:06.319Z,6.90
2017-06-24T17:43:32.736Z,7.50
2017-06-24T17:45:59.120Z,6.67
2017-06-24T17:48:25.530Z,7.23
2017-06-24T17:50:52.668Z,7.70
2017-06-24T17:53:19.069Z,8.30
2017-06-24T17:55:45.465Z,7.60
2017-06-24T17:58:11.890Z,7.70
2017-06-24T18:00:38.311Z,7.27
2017-06-24T18:03:05.470Z,7.93
2017-06-24T18:05:31.869Z,7.23
2017-06-24T18:07:58.273Z,7.40
2017-06-24T18:10:24.678Z,8.20
2017-06-24T18:12:51.057Z,7.40
2017-06-24T18:15:17.449Z,8.10
2017-06-24T18:17:43.864Z,8.03
2017-06-24T18:20:12.351Z,8.27
2017-06-24T18:22:39.499Z,8.13
2017-06-24T18:25:06.609Z,7.90
2017-06-24T18:27:32.985Z,7.87
2017-06-24T18:29:59.414Z,8.00
2017-06-24T18:32:26.544Z,9.47
2017-06-24T18:34:53.682Z,9.13
2017-06-24T18:37:35.763Z,8.10
2017-06-24T18:40:02.154Z,8.60
2017-06-24T18:42:28.580Z,8.60
2017-06-24T18:44:55.172Z,8.27
2017-06-24T18:47:21.594Z,9.90
2017-06-24T18:49:47.998Z,9.30
2017-06-24T18:52:14.421Z,8.70
2017-06-24T18:54:40.820Z,8.70
2017-06-24T18:57:07.249Z,8.53
2017-06-24T18:59:33.703Z,8.33
2017-06-24T19:02:00.859Z,8.07
2017-06-24T19:04:27.262Z,8.20
2017-06-24T19:06:53.708Z,8.50
2017-06-24T19:09:20.865Z,8.87
2017-06-24T19:11:48.035Z,8.80
2017-06-24T19:14:14.440Z,8.07
2017-06-24T19:16:40.857Z,8.60
2017-06-24T19:19:07.278Z,9.20
2017-06-24T19:21:33.716Z,7.87
2017-06-24T19:24:05.925Z,8.50
2017-06-24T19:26:33.078Z,8.90
2017-06-24T19:28:59.476Z,8.83
2017-06-24T19:31:25.901Z,9.50
2017-06-24T19:33:52.309Z,9.77
2017-06-24T19:36:18.704Z,9.90
2017-06-24T19:38:45.897Z,9.40
2017-06-24T19:41:12.314Z,10.03
2017-06-24T19:43:38.722Z,10.03
2017-06-24T19:46:05.138Z,9.87
2017-06-24T19:48:31.537Z,8.53
2017-06-24T19:50:57.978Z,9.63
2017-06-24T19:53:24.436Z,8.97
2017-06-24T19:55:51.592Z,8.97
2017-06-24T19:58:17.997Z,8.47
2017-06-24T20:00:44.404Z,8.00
2017-06-24T20:03:10.804Z,9.97
2017-06-24T20:05:37.981Z,10.57
2017-06-24T20:08:04.768Z,10.73
2017-06-24T20:10:31.151Z,10.10
2017-06-24T20:12:57.555Z,10.63
2017-06-24T20:15:24.708Z,10.37
2017-06-24T20:17:51.839Z,10.00
2017-06-24T20:20:18.258Z,10.87
2017-06-24T20:22:44.668Z,10.70
2017-06-24T20:25:11.135Z,10.47
2017-06-24T20:27:37.542Z,9.90
2017-06-24T20:30:03.948Z,10.63
2017-06-24T20:32:30.365Z,11.10
2017-06-24T20:34:56.735Z,10.93
2017-06-24T20:37:23.183Z,10.50
2017-06-24T20:39:49.606Z,11.07
2017-06-24T20:42:16.017Z,9.90
2017-06-24T20:44:42.456Z,10.80
2017-06-24T20:47:08.857Z,9.87
2017-06-24T20:49:35.995Z,11.27
2017-06-24T20:52:03.146Z,10.33
2017-06-24T20:54:29.657Z,10.50
2017-06-24T20:56:56.055Z,10.20
2017-06-24T20:59:22.468Z,11.43
2017-06-24T21:01:48.879Z,10.90
2017-06-24T21:04:16.036Z,11.77
2017-06-24T21:06:42.498Z,12.07
2017-06-24T21:09:08.914Z,11.73
2017-06-24T21:11:35.310Z,12.87
2017-06-24T21:14:01.704Z,12.20
2017-06-24T21:16:28.137Z,11.20
2017-06-24T21:18:54.552Z,11.47
2017-06-24T21:21:20.958Z,11.70
2017-06-24T21:23:48.112Z,11.67
2017-06-24T21:26:15.227Z,12.40
2017-06-24T21:28:41.657Z,10.90
2017-06-24T21:31:08.077Z,12.23
2017-06-24T21:33:34.479Z,10.33
2017-06-24T21:36:00.868Z,12.37
2017-06-24T21:38:27.274Z,12.83
2017-06-24T21:40:53.645Z,11.87
2017-06-24T21:43:20.835Z,12.90
2017-06-24T21:45:47.257Z,11.47
2017-06-24T21:48:13.654Z,12.07
2017-06-24T21:50:40.023Z,13.20
2017-06-24T21:53:06.429Z,14.13
2017-06-24T21:55:32.899Z,12.37
2017-06-24T21:57:59.300Z,12.33
2017-06-24T22:00:26.802Z,12.30
2017-06-24T22:02:53.188Z,12.50
2017-06-24T22:05:20.336Z,13.53
2017-06-24T22:07:47.499Z,13.97
2017-06-24T22:10:14.612Z,13.90
2017-06-24T22:12:41.010Z,14.83
2017-06-24T22:15:07.428Z,13.93
2017-06-24T22:17:33.859Z,14.43
2017-06-24T22:20:00.264Z,13.37
2017-06-24T22:22:27.427Z,13.53
2017-06-24T22:24:53.833Z,12.50
2017-06-24T22:27:20.237Z,13.07
2017-06-24T22:29:46.645Z,13.03
2017-06-24T22:32:13.049Z,12.90
2017-06-24T22:34:40.190Z,13.53
2017-06-24T22:37:06.812Z,14.60
2017-06-24T22:39:33.230Z,13.00
2017-06-24T22:41:59.668Z,14.77
2017-06-24T22:44:26.073Z,15.40
2017-06-24T22:46:52.496Z,13.30
2017-06-24T22:49:18.901Z,13.90
2017-06-24T22:51:46.041Z,14.83
2017-06-24T22:54:12.440Z,14.53
2017-06-24T22:56:39.098Z,14.27
2017-06-24T22:59:05.505Z,14.10
2017-06-24T23:01:31.959Z,12.73
2017-06-24T23:03:58.386Z,13.50
2017-06-24T23:06:24.775Z,12.97
2017-06-24T23:08:51.197Z,14.60
2017-06-24T23:11:18.336Z,13.80
2017-06-24T23:13:45.457Z,13.50
2017-06-24T23:16:11.885Z,14.23
2017-06-24T23:18:38.299Z,14.60
2017-06-24T23:21:04.716Z,13.23
2017-06-24T23:23:31.144Z,13.57
2017-06-24T23:25:57.551Z,14.63
2017-06-24T23:28:24.696Z,13.47
2017-06-24T23:30:51.889Z,13.57
2017-06-24T23:33:18.305Z,15.20
2017-06-24T23:35:44.700Z,12.87
2017-06-24T23:38:11.109Z,14.53
2017-06-24T23:40:37.514Z,13.50
2017-06-24T23:43:03.939Z,15.10
2017-06-24T23:45:30.345Z,13.60
2017-06-24T23:47:57.487Z,13.17
2017-06-24T23:50:23.920Z,15.40
2017-06-24T23:52:51.079Z,15.30
2017-06-24T23:55:18.223Z,14.13
2017-06-24T23:57:44.683Z,15.17
